Time;durP1;ratioP1;P1;durP2;ratioP2;P2;SDS_P1;SDS_P2;PMS_P1;PMS_P2;Temp;Humidity;BMP_temperature;BMP_pressure;BME280_temperature;BME280_humidity;BME280_pressure;Samples;Min_cycle;Max_cycle;Signal;HPM_P1;HPM_P2
2022/12/03 00:00:08;;;;;;;26.73;10.77;;;;;;;0.72;100.00;102230.00;5054484;28;20539;-90
2022/12/03 00:02:33;;;;;;;30.27;11.68;;;;;;;0.72;100.00;102232.63;5053830;28;20029;-90
2022/12/03 00:04:58;;;;;;;20.23;9.07;;;;;;;0.77;100.00;102223.38;5053606;28;20064;-90
2022/12/03 00:07:24;;;;;;;26.67;10.97;;;;;;;0.79;100.00;102231.97;5056164;28;20071;-89
2022/12/03 00:09:49;;;;;;;27.53;11.00;;;;;;;0.79;100.00;102230.19;5073745;28;20029;-90
2022/12/03 00:12:14;;;;;;;24.75;10.85;;;;;;;0.82;100.00;102215.84;5074419;28;20029;-90
2022/12/03 00:14:40;;;;;;;26.70;10.70;;;;;;;0.83;100.00;102225.41;5061931;28;20025;-90
2022/12/03 00:17:05;;;;;;;27.67;11.53;;;;;;;0.82;100.00;102226.38;5066858;28;20029;-91
2022/12/03 00:19:30;;;;;;;24.83;10.33;;;;;;;0.78;100.00;102211.84;5074440;28;20099;-90
2022/12/03 00:21:55;;;;;;;26.57;10.57;;;;;;;0.80;100.00;102215.16;5073338;28;20388;-90
2022/12/03 00:24:21;;;;;;;19.47;7.67;;;;;;;0.83;100.00;102212.22;5060606;28;20071;-90
2022/12/03 00:26:46;;;;;;;26.87;12.00;;;;;;;0.78;100.00;102211.84;5057348;28;20388;-90
2022/12/03 00:29:11;;;;;;;26.07;11.40;;;;;;;0.78;100.00;102210.06;5054273;28;20036;-90
2022/12/03 00:31:36;;;;;;;29.80;11.88;;;;;;;0.77;100.00;102211.03;5051931;28;20025;-90
2022/12/03 00:34:02;;;;;;;30.57;11.00;;;;;;;0.85;100.00;102207.59;5054490;28;20060;-90
2022/12/03 00:36:27;;;;;;;29.47;11.57;;;;;;;0.74;100.00;102206.06;5061592;28;20496;-90
2022/12/03 00:38:52;;;;;;;26.00;10.97;;;;;;;0.86;100.00;102202.16;5053045;28;20037;-90
2022/12/03 00:41:18;;;;;;;27.97;11.67;;;;;;;0.79;100.00;102200.31;5035362;28;20044;-90
2022/12/03 00:43:43;;;;;;;30.27;12.03;;;;;;;0.77;100.00;102199.63;5053699;28;20055;-89
2022/12/03 00:46:13;;;;;;;31.50;11.90;;;;;;;0.79;100.00;102202.94;5056526;28;20043;-91
2022/12/03 00:48:38;;;;;;;29.42;11.85;;;;;;;0.82;100.00;102192.06;5052041;28;20116;-90
2022/12/03 00:51:03;;;;;;;28.87;12.50;;;;;;;0.78;100.00;102196.00;5053376;28;20111;-90
2022/12/03 00:53:29;;;;;;;26.80;11.83;;;;;;;0.79;100.00;102213.50;5054242;28;20036;-89
2022/12/03 00:55:54;;;;;;;31.43;12.23;;;;;;;0.77;100.00;102205.75;5062598;28;20028;-90
2022/12/03 00:58:19;;;;;;;31.80;11.60;;;;;;;0.75;100.00;102200.63;5075596;28;20025;-91
2022/12/03 01:00:45;;;;;;;29.10;11.93;;;;;;;0.77;100.00;102204.91;5054238;28;20021;-90
2022/12/03 01:03:10;;;;;;;30.37;12.50;;;;;;;0.80;100.00;102200.16;5055369;28;20500;-90
2022/12/03 01:05:35;;;;;;;30.70;12.13;;;;;;;0.80;100.00;102205.44;5050421;28;20028;-90
2022/12/03 01:08:01;;;;;;;29.83;12.43;;;;;;;0.76;100.00;102201.47;5053209;28;20075;-90
2022/12/03 01:10:29;;;;;;;30.57;11.97;;;;;;;0.77;100.00;102197.84;5052190;28;20033;-90
2022/12/03 01:12:54;;;;;;;31.55;12.40;;;;;;;0.77;100.00;102208.41;5053843;28;20082;-90
2022/12/03 01:15:47;;;;;;;30.27;12.17;;;;;;;0.74;100.00;102201.59;5054584;28;20044;-91
2022/12/03 01:18:12;;;;;;;28.50;11.40;;;;;;;0.65;100.00;102178.81;5065750;28;20029;-90
2022/12/03 01:20:37;;;;;;;30.67;12.77;;;;;;;0.80;100.00;102199.31;5059564;28;20035;-90
2022/12/03 01:23:03;;;;;;;22.63;9.70;;;;;;;0.84;100.00;102198.03;5061373;28;20033;-91
2022/12/03 01:25:30;;;;;;;32.43;12.40;;;;;;;0.81;100.00;102193.91;5071233;28;20318;-90
2022/12/03 01:27:55;;;;;;;30.33;12.52;;;;;;;0.78;100.00;102199.50;5057052;28;20025;-90
2022/12/03 01:30:21;;;;;;;28.00;11.60;;;;;;;0.80;100.00;102191.41;5057775;28;20104;-90
2022/12/03 01:32:46;;;;;;;32.97;13.20;;;;;;;0.80;100.00;102200.16;5055479;28;20036;-91
2022/12/03 01:35:11;;;;;;;32.43;13.37;;;;;;;0.92;100.00;102203.31;5047786;28;20025;-90
2022/12/03 01:37:37;;;;;;;32.53;12.87;;;;;;;0.80;100.00;102201.97;5054169;28;20021;-90
2022/12/03 01:40:03;;;;;;;30.77;12.33;;;;;;;0.88;100.00;102202.81;5053525;28;20055;-90
2022/12/03 01:42:32;;;;;;;36.17;13.50;;;;;;;0.84;100.00;102195.38;5054148;28;20056;-91
2022/12/03 01:44:59;;;;;;;34.70;14.18;;;;;;;0.81;100.00;102190.44;5077258;28;20020;-90
2022/12/03 01:47:31;;;;;;;30.48;13.43;;;;;;;0.81;100.00;102191.25;5077840;28;20044;-90
2022/12/03 01:50:04;;;;;;;35.35;13.32;;;;;;;0.78;100.00;102191.56;5077992;28;20016;-90
2022/12/03 01:52:33;;;;;;;35.10;14.50;;;;;;;0.80;100.00;102189.59;5055566;28;20033;-89
2022/12/03 01:55:01;;;;;;;29.27;11.73;;;;;;;0.81;100.00;102185.16;5059297;28;20124;-90
2022/12/03 01:57:31;;;;;;;37.10;13.73;;;;;;;0.83;100.00;102189.25;5052555;28;20325;-90
2022/12/03 01:59:58;;;;;;;34.60;13.10;;;;;;;0.86;100.00;102186.31;5062041;28;20028;-90
2022/12/03 02:02:26;;;;;;;32.83;13.43;;;;;;;0.81;100.00;102177.22;5063484;28;20155;-89
2022/12/03 02:04:52;;;;;;;33.58;14.00;;;;;;;0.88;100.00;102191.44;5050705;28;20096;-90
2022/12/03 02:07:33;;;;;;;33.70;13.70;;;;;;;0.86;100.00;102188.13;5050275;28;20021;-90
2022/12/03 02:10:01;;;;;;;36.53;13.93;;;;;;;0.84;100.00;102185.66;5051302;28;20294;-90
2022/12/03 02:12:36;;;;;;;35.05;12.98;;;;;;;0.85;100.00;102178.56;5064386;28;20024;-90
2022/12/03 02:15:03;;;;;;;33.45;12.98;;;;;;;0.83;100.00;102177.91;5067053;28;20077;-90
2022/12/03 02:17:29;;;;;;;25.98;11.52;;;;;;;0.82;100.00;102182.34;5059273;28;20028;-90
2022/12/03 02:19:55;;;;;;;34.53;14.13;;;;;;;0.83;100.00;102189.25;5050540;28;20021;-89
2022/12/03 02:22:43;;;;;;;33.47;13.20;;;;;;;0.81;100.00;102180.72;5061666;28;20020;-89
2022/12/03 02:25:30;;;;;;;32.70;12.55;;;;;;;0.84;100.00;102182.19;5050520;28;20044;-89
2022/12/03 02:27:57;;;;;;;30.25;12.25;;;;;;;0.85;100.00;102181.22;5033405;28;20025;-90
2022/12/03 02:30:25;;;;;;;32.85;13.25;;;;;;;0.80;100.00;102184.34;5049860;28;20025;-89
2022/12/03 02:32:51;;;;;;;34.67;13.73;;;;;;;0.79;100.00;102176.56;5054341;28;20039;-90
2022/12/03 02:35:19;;;;;;;32.88;13.13;;;;;;;0.81;100.00;102174.59;5050480;28;20080;-90
2022/12/03 02:37:46;;;;;;;30.17;11.63;;;;;;;0.80;100.00;102165.03;5050979;28;20472;-89
2022/12/03 02:40:15;;;;;;;35.30;12.77;;;;;;;0.80;100.00;102172.94;5049676;28;20325;-90
2022/12/03 02:42:41;;;;;;;30.98;12.60;;;;;;;0.74;100.00;102166.47;5065187;28;20074;-89
2022/12/03 02:45:07;;;;;;;32.30;13.48;;;;;;;0.87;100.00;102171.31;5057640;28;20029;-89
2022/12/03 02:47:36;;;;;;;36.70;14.47;;;;;;;0.75;100.00;102166.31;5050896;28;20029;-88
2022/12/03 02:50:02;;;;;;;35.92;14.60;;;;;;;0.79;100.00;102166.84;5048685;28;20039;-89
2022/12/03 02:52:28;;;;;;;39.47;14.75;;;;;;;0.75;100.00;102160.22;5063610;28;20036;-89
2022/12/03 02:54:53;;;;;;;34.80;14.43;;;;;;;0.75;100.00;102171.59;5070020;28;20028;-90
2022/12/03 02:57:19;;;;;;;35.13;13.10;;;;;;;0.77;100.00;102154.78;5058626;28;20020;-90
2022/12/03 02:59:45;;;;;;;32.92;13.57;;;;;;;0.80;100.00;102165.84;5043889;28;20037;-90
2022/12/03 03:02:13;;;;;;;29.27;10.90;;;;;;;0.80;100.00;102163.22;5036882;28;20041;-89
2022/12/03 03:04:43;;;;;;;33.92;13.68;;;;;;;0.86;100.00;102164.38;5028391;28;20037;-90
2022/12/03 03:07:08;;;;;;;30.98;13.52;;;;;;;0.88;100.00;102163.22;5031366;28;20048;-89
2022/12/03 03:09:34;;;;;;;36.80;14.50;;;;;;;0.81;100.00;102164.03;5030462;28;20374;-90
2022/12/03 03:11:59;;;;;;;35.63;14.33;;;;;;;0.82;100.00;102165.69;5064086;28;20306;-91
2022/12/03 03:14:25;;;;;;;35.73;14.20;;;;;;;0.81;100.00;102159.59;5049470;28;20033;-89
2022/12/03 03:16:54;;;;;;;36.67;14.50;;;;;;;0.81;100.00;102149.03;5030675;28;20029;-90
2022/12/03 03:19:25;;;;;;;37.50;14.73;;;;;;;0.89;100.00;102156.16;5037772;28;20378;-89
2022/12/03 03:21:51;;;;;;;39.83;13.55;;;;;;;0.82;100.00;102155.94;5055436;28;20360;-89
2022/12/03 03:24:17;;;;;;;35.90;14.23;;;;;;;0.84;100.00;102155.81;5070511;28;20070;-89
2022/12/03 03:26:42;;;;;;;31.38;13.45;;;;;;;0.83;100.00;102148.88;5054941;28;20032;-90
2022/12/03 03:29:07;;;;;;;36.07;14.17;;;;;;;0.79;100.00;102150.16;5049165;28;20610;-90
2022/12/03 03:31:33;;;;;;;36.23;14.00;;;;;;;0.79;100.00;102134.34;5036245;28;20373;-89
2022/12/03 03:33:58;;;;;;;37.43;15.37;;;;;;;0.85;100.00;102145.06;5032042;28;20040;-90
2022/12/03 03:36:24;;;;;;;40.03;15.27;;;;;;;0.79;100.00;102145.72;5036174;28;20376;-90
2022/12/03 03:38:50;;;;;;;38.43;15.10;;;;;;;0.81;100.00;102135.00;5032572;28;20029;-90
2022/12/03 03:41:17;;;;;;;31.03;13.77;;;;;;;0.78;100.00;102138.81;5028541;28;20359;-90
2022/12/03 03:43:44;;;;;;;37.40;14.60;;;;;;;0.81;100.00;102137.66;5029264;28;20128;-90
2022/12/03 03:46:11;;;;;;;34.08;14.18;;;;;;;0.82;100.00;102141.94;5031408;28;20033;-90
2022/12/03 03:48:37;;;;;;;35.42;14.15;;;;;;;0.83;100.00;102144.41;5029295;28;20530;-90
2022/12/03 03:51:07;;;;;;;37.58;14.68;;;;;;;0.85;100.00;102144.25;5027955;28;20032;-90
2022/12/03 03:53:33;;;;;;;34.05;14.63;;;;;;;0.82;100.00;102134.03;5027643;28;20040;-90
2022/12/03 03:55:58;;;;;;;37.33;15.07;;;;;;;0.86;100.00;102132.72;5027068;28;20519;-90
2022/12/03 03:58:24;;;;;;;35.05;14.90;;;;;;;0.84;100.00;102135.50;5031023;28;20033;-90
2022/12/03 04:00:50;;;;;;;37.83;14.83;;;;;;;0.86;100.00;102138.81;5027379;28;20068;-90
2022/12/03 04:03:15;;;;;;;36.67;15.00;;;;;;;0.85;100.00;102128.44;5029250;28;20385;-91
2022/12/03 04:05:41;;;;;;;37.23;14.73;;;;;;;0.84;100.00;102138.13;5038660;28;20040;-90
2022/12/03 04:08:06;;;;;;;35.50;14.83;;;;;;;0.87;100.00;102121.19;5028597;28;20041;-90
2022/12/03 04:13:15;;;;;;;29.23;12.52;;;;;;;0.85;100.00;102128.44;5028583;28;20103;-90
2022/12/03 04:15:41;;;;;;;35.23;15.20;;;;;;;0.81;100.00;102127.94;5028456;28;20112;-90
2022/12/03 04:20:50;;;;;;;32.35;14.55;;;;;;;0.80;100.00;102122.78;5045677;28;20073;-89
2022/12/03 04:23:15;;;;;;;36.87;14.33;;;;;;;0.81;100.00;102133.22;5052854;28;20445;-90
2022/12/03 04:36:37;;;;;;;40.58;15.30;;;;;;;0.83;100.00;102128.56;5047738;28;20648;-90
2022/12/03 04:39:03;;;;;;;39.55;15.52;;;;;;;0.84;100.00;102127.59;5049313;28;20068;-90
2022/12/03 04:41:28;;;;;;;38.30;14.07;;;;;;;0.81;100.00;102135.00;5045928;28;20074;-91
2022/12/03 04:46:37;;;;;;;43.08;16.83;;;;;;;0.82;100.00;102128.75;5046859;28;20063;-91
2022/12/03 04:49:03;;;;;;;41.22;15.55;;;;;;;0.81;100.00;102112.09;5049734;28;20029;-90
2022/12/03 04:51:28;;;;;;;37.60;14.40;;;;;;;0.80;100.00;102118.34;5034945;28;20070;-91
2022/12/03 04:53:53;;;;;;;35.57;14.00;;;;;;;0.80;100.00;102121.00;5052891;28;20104;-90
2022/12/03 04:56:18;;;;;;;29.20;12.37;;;;;;;0.81;100.00;102121.81;5067960;28;20029;-88
2022/12/03 04:58:44;;;;;;;37.93;15.47;;;;;;;0.84;100.00;102121.50;5067055;28;20500;-88
2022/12/03 05:01:09;;;;;;;37.53;15.50;;;;;;;0.82;100.00;102124.28;5052598;28;20074;-88
2022/12/03 05:03:34;;;;;;;40.13;16.60;;;;;;;0.79;100.00;102121.97;5051470;28;20128;-89
2022/12/03 05:05:59;;;;;;;36.88;14.75;;;;;;;0.81;100.00;102114.72;5068996;28;20033;-89
2022/12/03 05:08:25;;;;;;;36.53;14.47;;;;;;;0.88;100.00;102113.09;5053652;28;20511;-89
2022/12/03 05:10:50;;;;;;;34.27;14.37;;;;;;;0.84;100.00;102110.94;5051643;28;20025;-88
2022/12/03 05:13:15;;;;;;;35.10;15.60;;;;;;;0.79;100.00;102115.88;5057538;28;20539;-91
2022/12/03 05:15:40;;;;;;;30.60;13.27;;;;;;;0.88;100.00;102118.34;5050669;28;20025;-89
2022/12/03 05:18:06;;;;;;;39.67;15.73;;;;;;;0.84;100.00;102109.09;5055559;28;20158;-89
2022/12/03 05:20:40;;;;;;;40.83;14.73;;;;;;;0.78;100.00;102104.50;5050774;28;20021;-87
2022/12/03 05:23:05;;;;;;;40.72;16.17;;;;;;;0.78;100.00;102101.84;5057391;28;20025;-88
2022/12/03 05:25:30;;;;;;;40.40;16.37;;;;;;;0.80;100.00;102099.03;5052073;28;20021;-88
2022/12/03 05:27:56;;;;;;;37.13;15.87;;;;;;;0.79;100.00;102102.66;5051642;28;20025;-89
2022/12/03 05:30:21;;;;;;;40.80;16.08;;;;;;;0.81;100.00;102105.97;5052192;28;20021;-88
2022/12/03 05:32:46;;;;;;;37.70;15.80;;;;;;;0.83;100.00;102109.28;5062458;28;20043;-88
2022/12/03 05:35:12;;;;;;;39.23;15.20;;;;;;;0.86;100.00;102108.97;5054432;28;20127;-87
2022/12/03 05:37:37;;;;;;;34.47;14.70;;;;;;;0.80;100.00;102106.97;5061832;28;20166;-87
2022/12/03 05:40:02;;;;;;;38.30;15.17;;;;;;;0.79;100.00;102102.66;5059712;28;20025;-87
2022/12/03 05:45:12;;;;;;;41.20;16.57;;;;;;;0.77;100.00;102086.16;5052041;28;20522;-88
2022/12/03 05:47:37;;;;;;;39.47;15.73;;;;;;;0.79;100.00;102092.13;5051024;28;20108;-87
2022/12/03 05:50:02;;;;;;;36.10;14.50;;;;;;;0.85;100.00;102092.28;5035714;28;20025;-87
2022/12/03 05:52:28;;;;;;;35.53;15.10;;;;;;;0.80;100.00;102089.34;5030910;28;20029;-87
2022/12/03 05:54:53;;;;;;;36.47;14.00;;;;;;;0.78;100.00;102087.81;5050579;28;20092;-87
2022/12/03 05:57:18;;;;;;;30.27;12.33;;;;;;;0.84;100.00;102095.09;5051284;28;20025;-87
2022/12/03 05:59:44;;;;;;;38.78;15.52;;;;;;;0.77;100.00;102084.38;5049243;28;20500;-87
2022/12/03 06:02:09;;;;;;;40.97;14.87;;;;;;;0.80;100.00;102096.41;5047130;28;20025;-87
2022/12/03 06:04:35;;;;;;;37.50;14.60;;;;;;;0.78;100.00;102091.31;5032577;28;20029;-87
2022/12/03 06:07:00;;;;;;;39.17;16.20;;;;;;;0.80;100.00;102083.22;5047738;28;20025;-87
2022/12/03 06:09:25;;;;;;;45.50;17.77;;;;;;;0.79;100.00;102089.47;5049864;28;20491;-87
2022/12/03 06:11:52;;;;;;;42.80;16.33;;;;;;;0.83;100.00;102088.97;5048595;28;20492;-87
2022/12/03 06:14:18;;;;;;;42.28;17.10;;;;;;;0.80;100.00;102085.84;5056537;28;20673;-87
2022/12/03 06:16:44;;;;;;;44.03;16.53;;;;;;;0.80;100.00;102091.97;5051335;28;20112;-87
2022/12/03 06:19:10;;;;;;;43.03;16.97;;;;;;;0.73;100.00;102086.47;5051608;28;20025;-87
2022/12/03 06:21:35;;;;;;;40.43;16.63;;;;;;;0.69;100.00;102087.81;5049432;28;20299;-88
2022/12/03 06:24:01;;;;;;;46.13;17.17;;;;;;;0.71;100.00;102080.56;5050020;28;20118;-90
2022/12/03 06:26:26;;;;;;;43.70;16.07;;;;;;;0.67;100.00;102070.47;5070158;28;20103;-88
2022/12/03 06:28:51;;;;;;;38.83;13.90;;;;;;;0.69;100.00;102079.91;5056940;28;20025;-88
2022/12/03 06:31:17;;;;;;;37.23;14.70;;;;;;;0.72;100.00;102090.13;5049911;28;20056;-89
2022/12/03 06:33:42;;;;;;;43.50;16.90;;;;;;;0.66;100.00;102085.50;5049911;28;20029;-88
2022/12/03 06:36:08;;;;;;;44.30;15.33;;;;;;;0.71;100.00;102083.22;5031817;28;20052;-88
2022/12/03 06:38:33;;;;;;;40.23;15.87;;;;;;;0.72;100.00;102092.78;5050596;28;20373;-89
2022/12/03 06:40:58;;;;;;;49.37;17.90;;;;;;;0.66;100.00;102085.50;5050453;28;20561;-89
2022/12/03 06:43:23;;;;;;;37.40;15.10;;;;;;;0.68;100.00;102086.16;5057193;28;20033;-89
2022/12/03 06:45:49;;;;;;;40.13;14.93;;;;;;;0.67;100.00;102084.50;5050281;28;20036;-88
2022/12/03 06:48:14;;;;;;;39.00;16.07;;;;;;;0.67;100.00;102086.31;5050133;28;21716;-89
2022/12/03 06:50:39;;;;;;;46.47;17.05;;;;;;;0.66;100.00;102088.13;5046112;28;20024;-89
2022/12/03 06:53:05;;;;;;;39.63;16.17;;;;;;;0.79;100.00;102081.56;5049979;28;20051;-89
2022/12/03 06:55:30;;;;;;;42.97;15.97;;;;;;;0.69;100.00;102074.63;5047927;28;20517;-89
2022/12/03 06:57:55;;;;;;;42.53;15.73;;;;;;;0.64;100.00;102076.09;5048003;28;20527;-89
2022/12/03 07:00:21;;;;;;;43.33;15.20;;;;;;;0.67;100.00;102083.66;5056477;28;20081;-88
2022/12/03 07:02:46;;;;;;;44.38;16.67;;;;;;;0.65;100.00;102072.44;5050439;28;20071;-88
2022/12/03 07:05:11;;;;;;;42.87;17.13;;;;;;;0.69;100.00;102076.41;5048817;28;20025;-89
2022/12/03 07:07:36;;;;;;;41.73;16.40;;;;;;;0.66;100.00;102071.47;5049289;28;20067;-90
2022/12/03 07:10:03;;;;;;;38.37;14.97;;;;;;;0.62;100.00;102078.06;5049074;28;20029;-89
2022/12/03 07:12:29;;;;;;;43.10;15.65;;;;;;;0.65;100.00;102083.00;5049922;28;20033;-89
2022/12/03 07:14:54;;;;;;;39.90;15.40;;;;;;;0.66;100.00;102082.84;5047814;28;20036;-88
2022/12/03 07:17:19;;;;;;;44.97;16.53;;;;;;;0.67;100.00;102086.31;5049103;28;20372;-87
2022/12/03 07:19:45;;;;;;;40.73;15.40;;;;;;;0.67;100.00;102084.50;5048417;28;20915;-88
2022/12/03 07:22:10;;;;;;;40.27;15.43;;;;;;;0.65;100.00;102081.19;5031009;28;20484;-90
2022/12/03 07:24:35;;;;;;;41.67;15.27;;;;;;;0.64;100.00;102076.91;5052677;28;20099;-89
2022/12/03 07:27:01;;;;;;;40.83;16.10;;;;;;;0.66;100.00;102088.13;5051927;28;20029;-89
2022/12/03 07:29:26;;;;;;;37.77;14.20;;;;;;;0.66;100.00;102077.56;5050684;28;20017;-88
2022/12/03 07:31:52;;;;;;;42.80;15.77;;;;;;;0.70;100.00;102086.84;5048900;28;20570;-88
2022/12/03 07:34:17;;;;;;;91.18;27.05;;;;;;;0.67;100.00;102073.13;5059269;28;20028;-89
2022/12/03 07:36:42;;;;;;;42.73;15.57;;;;;;;0.70;100.00;102073.63;5070434;28;20411;-88
2022/12/03 07:39:08;;;;;;;49.70;18.43;;;;;;;0.69;100.00;102079.91;5070230;28;20032;-89
2022/12/03 07:41:33;;;;;;;51.00;19.83;;;;;;;0.71;100.00;102075.28;5070214;28;20016;-89
2022/12/03 07:43:58;;;;;;;41.40;16.17;;;;;;;0.73;100.00;102077.75;5067772;28;20025;-90
2022/12/03 07:46:24;;;;;;;38.73;16.07;;;;;;;0.74;100.00;102074.94;5051094;28;20021;-89
2022/12/03 07:48:49;;;;;;;42.63;16.25;;;;;;;0.74;100.00;102080.22;5049647;28;20399;-89
2022/12/03 07:51:14;;;;;;;47.20;17.77;;;;;;;0.75;100.00;102075.78;5048397;28;20437;-87
2022/12/03 07:53:40;;;;;;;48.33;15.50;;;;;;;0.75;100.00;102081.88;5049329;28;20037;-96
2022/12/03 07:56:06;;;;;;;99.57;17.50;;;;;;;0.77;100.00;102073.81;5050285;28;20448;-94
2022/12/03 07:58:31;;;;;;;39.50;14.48;;;;;;;0.81;100.00;102079.59;5049994;28;20044;-95
2022/12/03 08:00:57;;;;;;;42.83;15.07;;;;;;;0.88;100.00;102085.88;5031358;28;20029;-89
2022/12/03 08:03:22;;;;;;;38.58;16.05;;;;;;;0.87;100.00;102085.03;5053423;28;20035;-88
2022/12/03 08:05:48;;;;;;;41.00;14.23;;;;;;;0.87;100.00;102078.94;5042569;28;20051;-90
2022/12/03 08:08:13;;;;;;;38.50;14.90;;;;;;;0.85;100.00;102076.44;5036394;28;20036;-89
2022/12/03 08:10:38;;;;;;;28.03;12.27;;;;;;;1.05;100.00;102087.56;5035126;28;20327;-94
2022/12/03 08:13:11;;;;;;;38.13;13.70;;;;;;;0.82;100.00;102079.41;5035859;28;20036;-94
2022/12/03 08:15:37;;;;;;;38.08;13.93;;;;;;;0.86;100.00;102095.78;5046873;28;20419;-92
2022/12/03 08:18:11;;;;;;;39.90;14.03;;;;;;;0.92;100.00;102086.38;5070450;28;20028;-93
2022/12/03 08:20:39;;;;;;;34.58;13.30;;;;;;;0.93;100.00;102088.84;5059014;28;20032;-93
2022/12/03 08:23:22;;;;;;;37.75;14.65;;;;;;;0.96;100.00;102088.50;5074607;28;20055;-94
2022/12/03 08:25:50;;;;;;;32.15;10.48;;;;;;;0.94;100.00;102082.56;5060723;28;20033;-94
2022/12/03 08:28:17;;;;;;;38.87;13.87;;;;;;;0.93;100.00;102086.19;5072069;28;20104;-93
2022/12/03 08:30:46;;;;;;;38.23;13.33;;;;;;;0.96;100.00;102092.97;5055382;28;20271;-93
2022/12/03 08:33:16;;;;;;;40.20;14.00;;;;;;;1.02;100.00;102092.31;5052358;28;20037;-94
2022/12/03 08:35:47;;;;;;;37.25;13.80;;;;;;;0.97;100.00;102087.53;5068516;28;20082;-93
2022/12/03 08:38:13;;;;;;;40.28;15.48;;;;;;;1.00;100.00;102087.22;5072024;28;20028;-93
2022/12/03 08:40:40;;;;;;;36.33;13.37;;;;;;;1.03;100.00;102091.31;5053385;28;20036;-92
2022/12/03 08:43:19;;;;;;;37.38;14.52;;;;;;;1.10;100.00;102088.84;5054342;28;20108;-93
2022/12/03 08:45:44;;;;;;;40.10;15.75;;;;;;;1.18;100.00;102091.53;5066315;28;20051;-92
2022/12/03 08:48:33;;;;;;;33.30;12.63;;;;;;;1.20;100.00;102089.53;5056244;28;20477;-93
2022/12/03 08:51:02;;;;;;;35.70;13.93;;;;;;;1.22;100.00;102087.56;5064613;28;20009;-93
2022/12/03 08:53:34;;;;;;;40.53;13.27;;;;;;;1.20;100.00;102094.81;5069445;28;20120;-93
2022/12/03 08:56:27;;;;;;;36.43;14.33;;;;;;;1.26;100.00;102088.06;5070793;28;20345;-92
2022/12/03 08:58:56;;;;;;;39.72;13.85;;;;;;;1.24;100.00;102082.94;5069266;28;20037;-92
2022/12/03 09:01:44;;;;;;;38.83;15.07;;;;;;;1.25;100.00;102096.97;5073538;28;20073;-94
2022/12/03 09:04:27;;;;;;;38.75;13.55;;;;;;;1.25;100.00;102081.97;5069407;28;20053;-93
2022/12/03 09:06:53;;;;;;;41.20;14.25;;;;;;;1.22;100.00;102092.84;5070265;28;20388;-94
2022/12/03 09:09:19;;;;;;;43.20;14.60;;;;;;;1.20;100.00;102089.53;5053669;28;20029;-92
2022/12/03 09:11:45;;;;;;;45.35;14.60;;;;;;;1.25;100.00;102081.97;5052788;28;20032;-92
2022/12/03 09:14:10;;;;;;;39.45;14.55;;;;;;;1.24;100.00;102095.31;5034739;28;20032;-92
2022/12/03 09:16:36;;;;;;;41.65;16.52;;;;;;;1.24;100.00;102082.94;5053331;28;20029;-93
2022/12/03 09:19:01;;;;;;;46.83;16.00;;;;;;;1.21;100.00;102093.84;5041365;28;20021;-93
2022/12/03 09:21:27;;;;;;;39.70;12.90;;;;;;;1.20;100.00;102089.53;5069133;28;20625;-93
2022/12/03 09:23:52;;;;;;;41.47;14.57;;;;;;;1.20;100.00;102095.63;5050859;28;20033;-93
2022/12/03 09:26:17;;;;;;;39.03;13.70;;;;;;;1.27;100.00;102085.25;5064678;28;20106;-94
2022/12/03 09:28:42;;;;;;;42.83;13.67;;;;;;;1.20;100.00;102092.19;5053470;28;20044;-93
2022/12/03 09:31:08;;;;;;;43.37;14.60;;;;;;;1.15;100.00;102087.41;5051199;28;20021;-93
2022/12/03 09:33:33;;;;;;;42.40;14.07;;;;;;;1.19;100.00;102093.97;5052038;28;20048;-92
2022/12/03 09:35:59;;;;;;;40.23;14.10;;;;;;;1.19;100.00;102101.91;5058179;28;20598;-92
2022/12/03 09:38:24;;;;;;;51.00;17.60;;;;;;;1.21;100.00;102091.19;5051462;28;20388;-93
2022/12/03 09:40:50;;;;;;;45.28;15.20;;;;;;;1.23;100.00;102093.66;5052411;28;20393;-94
2022/12/03 09:43:16;;;;;;;36.17;13.70;;;;;;;1.24;100.00;102084.75;5052056;28;20119;-94
2022/12/03 09:45:44;;;;;;;41.85;14.38;;;;;;;1.21;100.00;102086.72;5047576;28;20029;-91
2022/12/03 09:48:12;;;;;;;45.72;15.15;;;;;;;1.21;100.00;102081.44;5068177;28;20578;-92
2022/12/03 09:50:40;;;;;;;50.17;16.85;;;;;;;1.19;100.00;102079.97;5039039;28;20029;-92
2022/12/03 09:53:06;;;;;;;40.87;13.20;;;;;;;1.13;100.00;102078.81;5050446;28;20527;-93
2022/12/03 09:55:31;;;;;;;37.63;14.07;;;;;;;1.15;100.00;102076.00;5051071;28;20033;-93
2022/12/03 09:58:01;;;;;;;32.67;13.13;;;;;;;1.12;100.00;102076.31;5051189;28;20484;-94
2022/12/03 10:00:29;;;;;;;39.58;12.63;;;;;;;1.05;100.00;102063.78;5052200;28;20024;-93
2022/12/03 10:02:58;;;;;;;34.15;11.75;;;;;;;1.06;100.00;102067.25;5052640;28;20032;-93
2022/12/03 10:05:23;;;;;;;35.03;12.68;;;;;;;0.99;100.00;102072.34;5051246;28;20508;-95
2022/12/03 10:08:09;;;;;;;31.20;11.87;;;;;;;1.01;100.00;102073.03;5009737;28;20049;-93
2022/12/03 10:10:37;;;;;;;26.20;10.00;;;;;;;1.06;100.00;102075.16;5051979;28;20303;-93
2022/12/03 10:13:03;;;;;;;29.38;10.82;;;;;;;0.98;100.00;102062.78;5057886;28;20108;-94
2022/12/03 10:15:30;;;;;;;30.85;10.82;;;;;;;1.02;100.00;102060.63;5066057;28;20044;-93
2022/12/03 10:17:56;;;;;;;32.78;12.00;;;;;;;1.01;100.00;102056.34;5054018;28;20024;-93
2022/12/03 10:20:24;;;;;;;31.77;11.45;;;;;;;0.97;100.00;102041.84;5054192;28;20021;-92
2022/12/03 10:22:49;;;;;;;29.75;10.20;;;;;;;1.00;100.00;102049.44;5066520;28;20036;-92
2022/12/03 10:25:19;;;;;;;28.53;10.70;;;;;;;1.04;100.00;102053.38;5073420;28;20480;-93
2022/12/03 10:28:02;;;;;;;27.55;9.90;;;;;;;1.05;100.00;102039.19;5069999;28;20020;-94
2022/12/03 10:30:28;;;;;;;32.35;10.75;;;;;;;0.98;100.00;102046.94;5052998;28;20033;-91
2022/12/03 10:32:56;;;;;;;31.35;10.68;;;;;;;1.03;100.00;102049.09;5064584;28;20488;-92
2022/12/03 10:35:40;;;;;;;32.15;11.73;;;;;;;1.03;100.00;102042.00;5054384;28;20059;-92
2022/12/03 10:38:18;;;;;;;33.75;11.05;;;;;;;1.14;100.00;102038.22;5051551;28;20075;-93
2022/12/03 10:40:44;;;;;;;28.87;10.87;;;;;;;1.02;99.98;102028.97;5035548;28;20346;-93
2022/12/03 10:43:15;;;;;;;30.40;12.07;;;;;;;1.11;99.78;102027.16;5055641;28;20287;-91
2022/12/03 10:45:41;;;;;;;25.77;10.07;;;;;;;1.13;99.27;102026.00;5070489;28;20053;-93
2022/12/03 10:48:25;;;;;;;30.17;11.43;;;;;;;1.14;99.50;102014.47;5056466;28;20024;-93
2022/12/03 10:50:57;;;;;;;26.77;10.88;;;;;;;1.27;98.65;102016.59;5052386;28;20039;-92
2022/12/03 10:53:27;;;;;;;27.80;10.18;;;;;;;1.40;98.85;102009.97;5040114;28;20044;-93
2022/12/03 10:55:58;;;;;;;27.45;11.82;;;;;;;1.54;96.08;102011.13;5027298;28;20026;-92
2022/12/03 10:58:29;;;;;;;25.97;10.50;;;;;;;1.54;95.72;102000.56;5026924;28;20037;-93
2022/12/03 11:00:56;;;;;;;26.23;10.97;;;;;;;1.59;96.11;101998.19;5028140;28;20299;-91
2022/12/03 11:03:32;;;;;;;27.17;10.32;;;;;;;1.66;96.42;101999.19;5033409;28;21656;-92
2022/12/03 11:05:59;;;;;;;24.70;10.15;;;;;;;1.66;96.22;102013.22;5050669;28;20051;-92
2022/12/03 11:08:29;;;;;;;28.30;12.05;;;;;;;1.57;94.27;102003.66;5051644;28;20059;-92
2022/12/03 11:11:05;;;;;;;28.92;11.95;;;;;;;1.57;95.82;102010.75;5033213;28;20588;-92
2022/12/03 11:13:33;;;;;;;29.55;11.43;;;;;;;1.53;95.34;102004.19;5059831;28;20123;-92
2022/12/03 11:16:04;;;;;;;26.33;11.00;;;;;;;1.50;95.08;101998.25;5050756;28;20064;-93
2022/12/03 11:18:49;;;;;;;27.55;9.30;;;;;;;1.49;95.83;101987.81;5052026;28;20025;-93
2022/12/03 11:21:14;;;;;;;23.50;10.13;;;;;;;1.45;96.24;101986.53;5052406;28;20112;-93
2022/12/03 11:23:43;;;;;;;26.83;10.75;;;;;;;1.46;95.32;101993.47;5062776;28;20045;-93
2022/12/03 11:26:09;;;;;;;23.13;9.80;;;;;;;1.39;95.94;101981.91;5050110;28;20025;-93
2022/12/03 11:28:37;;;;;;;24.25;10.27;;;;;;;1.46;95.96;101991.63;5050055;28;20468;-93
2022/12/03 11:31:11;;;;;;;26.95;11.23;;;;;;;1.42;94.89;101984.22;5050655;28;20029;-93